createdAt,value
2023-03-19T00:06:45.348Z,18.32
2023-03-19T00:16:47.234Z,18.31
2023-03-19T00:26:48.648Z,18.25
2023-03-19T00:36:50.510Z,18.26
2023-03-19T00:46:52.186Z,18.27
2023-03-19T00:56:53.574Z,18.23
2023-03-19T01:06:55.530Z,18.19
2023-03-19T01:16:57.407Z,18.15
2023-03-19T01:26:58.939Z,18.09
2023-03-19T01:37:00.380Z,18.09
2023-03-19T01:47:03.585Z,18.04
2023-03-19T01:57:12.381Z,18.00
2023-03-19T02:07:13.818Z,17.96
2023-03-19T02:17:15.752Z,17.90
2023-03-19T02:27:17.138Z,17.90
2023-03-19T02:37:24.662Z,17.89
2023-03-19T02:47:26.326Z,17.87
2023-03-19T02:57:27.850Z,17.86
2023-03-19T03:07:29.227Z,17.85
2023-03-19T03:17:30.598Z,17.84
2023-03-19T03:27:32.320Z,17.86
2023-03-19T03:37:33.708Z,17.85
2023-03-19T03:47:36.249Z,17.85
2023-03-19T03:57:37.667Z,17.84
2023-03-19T04:07:39.546Z,17.83
2023-03-19T04:17:41.622Z,17.84
2023-03-19T04:27:42.979Z,17.84
2023-03-19T04:37:48.293Z,17.81
2023-03-19T04:47:50.113Z,17.82
2023-03-19T04:57:51.568Z,17.79
2023-03-19T05:07:52.993Z,17.77
2023-03-19T05:17:54.361Z,17.82
2023-03-19T05:27:56.078Z,17.98
2023-03-19T05:37:57.666Z,18.21
2023-03-19T05:47:59.031Z,18.46
2023-03-19T05:58:00.428Z,18.61
2023-03-19T06:08:01.869Z,18.70
2023-03-19T06:18:03.516Z,18.74
2023-03-19T06:28:05.466Z,18.72
2023-03-19T06:38:07.310Z,18.75
2023-03-19T06:48:08.717Z,18.76
2023-03-19T06:58:11.710Z,18.78
2023-03-19T07:08:13.231Z,18.84
2023-03-19T07:18:14.617Z,18.88
2023-03-19T07:28:16.352Z,18.93
2023-03-19T07:38:17.886Z,18.97
2023-03-19T07:48:19.313Z,19.03
2023-03-19T07:58:20.692Z,19.10
2023-03-19T08:08:22.271Z,19.21
2023-03-19T08:18:24.073Z,19.25
2023-03-19T08:28:25.562Z,19.33
2023-03-19T08:38:26.970Z,19.39
2023-03-19T08:48:28.482Z,19.50
2023-03-19T08:58:30.111Z,19.52
2023-03-19T09:08:31.801Z,19.53
2023-03-19T09:18:33.943Z,19.52
2023-03-19T09:28:35.794Z,19.71
2023-03-19T09:38:37.391Z,19.97
2023-03-19T09:48:58.031Z,19.85
2023-03-19T09:58:59.909Z,19.92
2023-03-19T10:09:16.197Z,19.95
2023-03-19T10:19:22.291Z,20.19
2023-03-19T10:29:24.413Z,20.35
2023-03-19T10:39:26.124Z,20.24
2023-03-19T10:49:27.936Z,20.21
2023-03-19T10:59:33.773Z,20.27
2023-03-19T11:09:39.627Z,20.22
2023-03-19T11:19:42.123Z,20.29
2023-03-19T11:29:44.585Z,20.37
2023-03-19T11:40:07.779Z,20.30
2023-03-19T11:50:30.591Z,20.22
2023-03-19T12:00:50.859Z,20.09
2023-03-19T12:11:13.992Z,20.03
2023-03-19T12:21:39.181Z,20.13
2023-03-19T12:31:49.339Z,20.17
2023-03-19T12:41:51.353Z,20.20
2023-03-19T12:51:56.270Z,20.29
2023-03-19T13:02:01.898Z,20.22
2023-03-19T13:12:07.592Z,20.43
2023-03-19T13:22:14.529Z,20.39
2023-03-19T13:32:29.527Z,20.40
2023-03-19T13:42:42.699Z,20.35
2023-03-19T13:52:44.884Z,20.20
2023-03-19T14:02:47.840Z,20.13
2023-03-19T14:12:49.242Z,20.10
2023-03-19T14:23:11.899Z,20.01
2023-03-19T14:33:20.235Z,19.98
2023-03-19T14:43:46.131Z,19.92
2023-03-19T14:53:52.444Z,19.84
2023-03-19T15:03:59.330Z,19.77
2023-03-19T15:14:06.372Z,19.65
2023-03-19T15:24:13.593Z,19.57
2023-03-19T15:34:26.067Z,19.46
2023-03-19T15:44:48.825Z,19.39
2023-03-19T15:54:50.283Z,19.34
2023-03-19T16:05:18.094Z,19.27
2023-03-19T16:15:31.482Z,19.25
2023-03-19T16:25:33.203Z,19.17
2023-03-19T16:35:35.030Z,19.14
2023-03-19T16:45:36.806Z,19.07
2023-03-19T16:55:39.120Z,19.01
2023-03-19T17:05:40.768Z,18.95
2023-03-19T17:15:42.280Z,18.89
2023-03-19T17:25:44.857Z,18.85
2023-03-19T17:35:46.254Z,18.81
2023-03-19T17:45:48.540Z,18.77
2023-03-19T17:55:50.110Z,18.72
2023-03-19T18:05:51.745Z,18.68
2023-03-19T18:15:53.143Z,18.62
2023-03-19T18:25:54.705Z,18.62
2023-03-19T18:35:56.875Z,18.57
2023-03-19T18:45:58.282Z,18.54
2023-03-19T18:56:02.164Z,18.54
2023-03-19T19:06:03.795Z,18.51
2023-03-19T19:16:05.922Z,18.49
2023-03-19T19:26:07.323Z,18.47
2023-03-19T19:36:09.916Z,18.44
2023-03-19T19:46:12.385Z,18.43
2023-03-19T19:56:18.686Z,18.39
2023-03-19T20:06:20.382Z,18.38
2023-03-19T20:16:23.160Z,18.35
2023-03-19T20:26:25.237Z,18.31
2023-03-19T20:36:26.758Z,18.31
2023-03-19T20:46:28.538Z,18.31
2023-03-19T20:56:30.596Z,18.28
2023-03-19T21:06:46.048Z,18.25
2023-03-19T21:16:53.319Z,18.27
2023-03-19T21:26:55.379Z,18.24
2023-03-19T21:36:56.860Z,18.21
2023-03-19T21:46:58.546Z,18.20
2023-03-19T21:57:00.307Z,18.19
2023-03-19T22:07:02.111Z,18.18
2023-03-19T22:17:05.672Z,18.16
2023-03-19T22:27:10.312Z,18.13
2023-03-19T22:37:25.895Z,18.10
2023-03-19T22:47:27.366Z,18.08
2023-03-19T22:57:28.794Z,18.05
2023-03-19T23:07:30.452Z,18.02
2023-03-19T23:17:32.016Z,17.97
2023-03-19T23:27:33.545Z,17.98
2023-03-19T23:37:34.925Z,17.96
2023-03-19T23:47:36.737Z,17.93
2023-03-19T23:57:38.145Z,17.91
